Home > Products > Valid Products > MTR

000
SAUS43 KDTX 240353
MTRP58
METAR KP58 240351Z AUTO 00000KT 18/13 A3008 RMK AO1 SLP183 T01780133
$





000
SAUS43 KDTX 240252
MTRP58
METAR KP58 240251Z AUTO 00000KT 18/13 A3008 RMK AO1 SLP183 T01780128
$





000
SAUS43 KDTX 240153
MTRP58
METAR KP58 240151Z AUTO 00000KT 18/12 A3009 RMK AO1 SLP184 T01830117
$





000
SAUS43 KDTX 240054
MTRP58
METAR KP58 240051Z AUTO 00000KT 18/12 A3008 RMK AO1 SLP180 T01830122





000
SAUS43 KDTX 232353
MTRP58
METAR KP58 232351Z AUTO 00000KT 19/12 A3008 RMK AO1 SLP181 T01890122
10200 20183 52001





000
SAUS43 KDTX 232253
MTRP58
METAR KP58 232251Z AUTO VRB03KT 20/13 A3008 RMK AO1 SLP181 T02000128





000
SAUS43 KDTX 232154
MTRP58
METAR KP58 232151Z AUTO 00000KT 19/13 A3007 RMK AO1 SLP180 T01940128





000
SAUS43 KDTX 232052
MTRP58
METAR KP58 232051Z AUTO 36008G17KT 320V020 19/12 A3008 RMK AO1
SLP180 T01890122 58003





000
SAUS43 KDTX 231954
MTRP58
METAR KP58 231951Z AUTO 01010G18KT 19/12 A3009 RMK AO1 SLP184
T01890122





000
SAUS43 KDTX 231852
MTRP58
METAR KP58 231851Z AUTO 01011KT 18/13 A3009 RMK AO1 SLP185 T01830128





000
SAUS43 KDTX 231753
MTRP58
METAR KP58 231751Z AUTO 36010G16KT 310V020 18/13 A3008 RMK AO1
SLP182 T01830128 10200 20172 51014





000
SAUS43 KDTX 231654
MTRP58
METAR KP58 231651Z AUTO 32003KT 20/14 A3008 RMK AO1 SLP179 T02000144





000
SAUS43 KDTX 231553
MTRP58
METAR KP58 231551Z AUTO 00000KT 19/14 A3005 RMK AO1 SLP170 T01940144





000
SAUS43 KDTX 231453
MTRP58
METAR KP58 231451Z AUTO 00000KT 20/14 A3004 RMK AO1 SLP165 T02000144
53006





000
SAUS43 KDTX 231353
MTRP58
METAR KP58 231351Z AUTO 00000KT 18/14 A3002 RMK AO1 SLP158 T01830139





000
SAUS43 KDTX 231252
MTRP58
METAR KP58 231251Z AUTO VRB03KT 18/14 A3003 RMK AO1 SLP159 T01780144





000
SAUS43 KDTX 231152
MTRP58
METAR KP58 231151Z AUTO VRB03KT 18/14 A3002 RMK AO1 SLP159 70003
T01780139 10211 20172 51024





000
SAUS43 KDTX 231052
MTRP58
METAR KP58 231051Z AUTO 00000KT 17/14 A3002 RMK AO1 SLP158 T01720144





000
SAUS43 KDTX 230954
MTRP58
METAR KP58 230951Z AUTO 00000KT 17/14 A3000 RMK AO1 SLP150 T01720144





000
SAUS43 KDTX 230854
MTRP58
METAR KP58 230851Z AUTO VRB03KT 18/15 A2995 RMK AO1 SLP135 T01780150
53019





000
SAUS43 KDTX 230754
MTRP58
METAR KP58 230751Z AUTO VRB03KT 19/17 A2990 RMK AO1 SLP116 T01940167





000
SAUS43 KDTX 230654
MTRP58
METAR KP58 230651Z AUTO 00000KT 20/17 A2990 RMK AO1 SLP117 T02000172





000
SAUS43 KDTX 230553
MTRP58
METAR KP58 230551Z AUTO 31003KT 21/19 A2990 RMK AO1 SLP115 P0003
60003 T02110189 10294 20211 50009





000
SAUS43 KDTX 230454
MTRP58
METAR KP58 230451Z AUTO VRB05KT 23/19 A2991 RMK AO1 SLP116 T02280194
403110200





000
SAUS43 KDTX 230353
MTRP58
METAR KP58 230351Z AUTO VRB04KT 26/20 A2987 RMK AO1 SLP105 T02610200





000
SAUS43 KDTX 230353
MTRP58
METAR KP58 230351Z AUTO VRB04KT 26/20 A2987 RMK AO1 SLP105 T02610200





000
SAUS43 KDTX 230252
MTRP58
METAR KP58 230251Z AUTO 24005KT 27/19 A2987 RMK AO1 SLP105 T02670194
56001





000
SAUS43 KDTX 230153
MTRP58
METAR KP58 230151Z AUTO VRB04KT 28/19 A2987 RMK AO1 SLP106 T02780194





000
SAUS43 KDTX 230054
MTRP58
METAR KP58 230051Z AUTO VRB05KT 28/19 A2987 RMK AO1 SLP104 T02830189





000
SAUS43 KDTX 222352
MTRP58
METAR KP58 222351Z AUTO 24007KT 29/19 A2987 RMK AO1 SLP107 T02890189
10311 20289 55012





000
SAUS43 KDTX 222253
MTRP58
METAR KP58 222251Z AUTO 22008G14KT 30/18 A2987 RMK AO1 SLP105
T03000183





000
SAUS43 KDTX 222153
MTRP58
METAR KP58 222151Z AUTO 20009G17KT 170V240 31/18 A2989 RMK AO1
SLP111 T03060183





000
SAUS43 KDTX 222053
MTRP58
METAR KP58 222051Z AUTO VRB05KT 30/18 A2991 RMK AO1 SLP119 T03000183
56013





000
SAUS43 KDTX 221954
MTRP58
METAR KP58 221951Z AUTO 22007G14KT 200V270 31/18 A2992 RMK AO1
SLP122 T03060183





000
SAUS43 KDTX 221853
MTRP58
METAR KP58 221851Z AUTO 22007G16KT 30/18 A2993 RMK AO1 SLP126
T03000183





000
SAUS43 KDTX 221753
MTRP58
METAR KP58 221751Z AUTO 21009G15KT 170V230 29/18 A2995 RMK AO1
SLP132 T02940178 10294 20211 56024





000
SAUS43 KDTX 221652
MTRP58
METAR KP58 221651Z AUTO VRB06KT 29/18 A2997 RMK AO1 SLP140 T02890178





000
SAUS43 KDTX 221554
MTRP58
METAR KP58 221551Z AUTO 21007KT 190V260 28/18 A3000 RMK AO1 SLP149
T02830178





000
SAUS43 KDTX 221454
MTRP58
METAR KP58 221451Z AUTO VRB04KT 27/18 A3002 RMK AO1 SLP157 T02670178
58020





000
SAUS43 KDTX 221353
MTRP58
METAR KP58 221351Z AUTO VRB06KT 25/17 A3004 RMK AO1 SLP166 T02500167





000
SAUS43 KDTX 221254
MTRP58
METAR KP58 221251Z AUTO VRB05KT 23/16 A3008 RMK AO1 SLP178 T02330156





000
SAUS43 KDTX 221154
MTRP58
METAR KP58 221151Z AUTO VRB04KT 21/14 A3008 RMK AO1 SLP179 T02110139
10217 20200 53006





000
SAUS43 KDTX 221053
MTRP58
METAR KP58 221051Z AUTO 22004KT 21/13 A3007 RMK AO1 SLP176 T02060128





000
SAUS43 KDTX 220954
MTRP58
METAR KP58 220951Z AUTO 22004KT 20/13 A3006 RMK AO1 SLP172 T02000133





000
SAUS43 KDTX 220854
MTRP58
METAR KP58 220851Z AUTO 23004KT 21/14 A3006 RMK AO1 SLP173 T02060139
58005





000
SAUS43 KDTX 220757
MTRP58
METAR KP58 220751Z AUTO 22006KT 21/15 A3007 RMK AO1 SLP175 T02060150





000
SAUS43 KDTX 220653
MTRP58
METAR KP58 220651Z AUTO VRB05KT 21/16 A3007 RMK AO1 SLP176 T02110156





000
SAUS43 KDTX 220553
MTRP58
METAR KP58 220551Z AUTO 21003KT 22/16 A3008 RMK AO1 SLP178 T02170156
10250 20211





000
SAUS43 KDTX 220453
MTRP58
METAR KP58 220451Z AUTO 20004KT 22/17 A3008 RMK AO1 SLP177 T02220167
402720167





000
SAUS43 KDTX 220354
MTRP58
METAR KP58 220351Z AUTO 17003KT 23/17 A3008 RMK AO1 SLP177 T02280172





000
SAUS43 KDTX 220253
MTRP58
METAR KP58 220251Z AUTO 00000KT 22/18 A3008 RMK AO1 SLP179 T02220183
53005





000
SAUS43 KDTX 220153
MTRP58
METAR KP58 220151Z AUTO 00000KT 22/19 A3008 RMK AO1 SLP179 T02220194





000
SAUS43 KDTX 220053
MTRP58
METAR KP58 220051Z AUTO 00000KT 24/19 A3007 RMK AO1 SLP176 T02390194





000
SAUS43 KDTX 212353
MTRP58
METAR KP58 212351Z AUTO 12004KT 24/21 A3007 RMK AO1 SLP175 T02390206
10256 20222 56006





000
SAUS43 KDTX 212257 COR
MTRP58
METAR KP58 212251Z AUTO 12006KT 23/20 A3007 RMK AO1 SLP178 T02330200





000
SAUS43 KDTX 212255 COR
MTRP58
METAR KP58 212251Z AUTO 12006KT 23/20 A3007 RMK AO1 SLP178 T02330200





000
SAUS43 KDTX 212253
MTRP58
METAR KP58 212251Z AUTO 12006KT 23/20 A3007 RMK AO1 SLP178 T02330200





000
SAUS43 KDTX 212152
MTRP58
METAR KP58 212151Z AUTO 12007KT 24/19 A3008 RMK AO1 SLP179 T02390194





000
SAUS43 KDTX 212054
MTRP58
METAR KP58 212051Z AUTO 10003KT 24/19 A3009 RMK AO1 SLP183 T02390194
58006





000
SAUS43 KDTX 211953
MTRP58
METAR KP58 211951Z AUTO 02003KT 24/18 A3010 RMK AO1 SLP187 T02440183





000
SAUS43 KDTX 211853
MTRP58
METAR KP58 211851Z AUTO 00000KT 24/18 A3010 RMK AO1 SLP187 T02390183





000
SAUS43 KDTX 211752
MTRP58
METAR KP58 211751Z AUTO 10004KT 23/18 A3011 RMK AO1 SLP189 T02280183
10272 20194





000
SAUS43 KDTX 211654
MTRP58
METAR KP58 211651Z AUTO VRB06KT 27/17 A3011 RMK AO1 SLP189 T02720172





000
SAUS43 KDTX 211554
MTRP58
METAR KP58 211551Z AUTO VRB05KT 26/17 A3010 RMK AO1 SLP187 T02610172





000
SAUS43 KDTX 211454
MTRP58
METAR KP58 211451Z AUTO 24007KT 210V270 25/17 A3009 RMK AO1 SLP184
T02500167 56003





000
SAUS43 KDTX 211353
MTRP58
METAR KP58 211351Z AUTO VRB06KT 24/16 A3010 RMK AO1 SLP184 T02390161





000
SAUS43 KDTX 211252
MTRP58
METAR KP58 211251Z AUTO 23007KT 22/16 A3009 RMK AO1 SLP185 T02170161
$





000
SAUS43 KDTX 211153
MTRP58
METAR KP58 211151Z AUTO 21005KT 19/16 A3010 RMK AO1 SLP188 T01940156
10194 20167 50014 $





000
SAUS43 KDTX 211052
MTRP58
METAR KP58 211051Z AUTO 22005KT 18/15 A3011 RMK AO1 SLP190 T01830150
$





000
SAUS43 KDTX 210952
MTRP58
METAR KP58 210951Z AUTO 22005KT 18/15 A3008 RMK AO1 SLP181 T01830150
$





000
SAUS43 KDTX 210853
MTRP58
METAR KP58 210851Z AUTO 20003KT 18/14 A3006 RMK AO1 SLP175 T01780144
53003 $





000
SAUS43 KDTX 210754
MTRP58
METAR KP58 210751Z AUTO 00000KT 18/14 A3005 RMK AO1 SLP171 T01780144
$





000
SAUS43 KDTX 210653
MTRP58
METAR KP58 210651Z AUTO 21003KT 17/13 A3005 RMK AO1 SLP173 T01720133
$





000
SAUS43 KDTX 210554
MTRP58
METAR KP58 210551Z AUTO 21003KT 17/14 A3005 RMK AO1 SLP173 T01720139
10211 20167 57003 $





000
SAUS43 KDTX 210452
MTRP58
METAR KP58 210451Z AUTO VRB03KT 17/15 A3006 RMK AO1 SLP174 T01720150
402170167 $





    US Dept of Commerce
    National Oceanic and Atmospheric Administration
    National Weather Service
    1325 East West Highway
    Silver Spring, MD 20910
    Page Author: NWS Internet Services Team
Disclaimer
Information Quality
Credits
Glossary
Privacy Policy
Freedom of Information Act (FOIA)
About Us
Career Opportunities